Heloise — 3FLA7 — position and weather

sailwx.info

Track history (hours):
 
Tides and Currents Weather Stations Pressure Air Temp Water Temp Dewpoint Dewpoint Depression Visibility Wind Speed Wind Dir Waves Ship Positions

Heloise

Last reported at 2015-Apr-27 12:08 UTC. Time now 2015-Apr-28 10:23 UTC.
Position N 49°56' W 003°19'.

Length 186 m; draft 7.7 m.

Type: Cargo ship. MMSI: 352302000.

Date/timePositionNaut miles runAvg speedWind from/ knotsBaromVisibWave heightAir tempDewpointWater temp
2015-Apr-27 12:08N 49°56' W 003°19'14313.6
2015-Apr-27 01:33N 50°33' E 000°17'1313.1
2015-Apr-27 00:33N 50°37' E 000°37'1413.7
2015-Apr-26 23:33N 50°45' E 000°55'1514.1
2015-Apr-26 22:32N 50°53' E 001°14'1313.8
2015-Apr-26 21:33N 51°02' E 001°29'1313.0
2015-Apr-26 20:33N 51°11' E 001°44'1212.5
2015-Apr-26 19:33N 51°23' E 001°53'1312.5
2015-Apr-26 18:32N 51°32' E 002°06'1412.8
2015-Apr-26 17:26N 51°42' E 002°22'46312.5
2015-Apr-25 04:33N 57°49' E 010°30'1211.6
2015-Apr-25 03:33N 57°47' E 010°52'1312.9
2015-Apr-25 02:33N 57°38' E 011°09'1313.1
2015-Apr-25 01:34N 57°29' E 011°26'1413.6
2015-Apr-25 00:33N 57°16' E 011°33'1313.2
2015-Apr-24 23:33N 57°03' E 011°42'3712.3
2015-Apr-24 20:32N 56°27' E 011°33'11012.0
2015-Apr-24 11:20N 54°39' E 010°54'1013.1
2015-Apr-24 10:34N 54°36' E 011°11'1312.9
2015-Apr-24 09:34N 54°30' E 011°31'1312.8
2015-Apr-24 08:33N 54°26' E 011°52'1211.8
2015-Apr-24 07:33N 54°30' E 012°11'1312.4
2015-Apr-24 06:29N 54°41' E 012°24'1313.4
2015-Apr-24 05:32N 54°47' E 012°43'1413.1
2015-Apr-24 04:27N 54°52' E 013°06'1213.3
2015-Apr-24 03:33N 54°56' E 013°26'1713.1
2015-Apr-24 02:17N 55°03' E 013°52'1112.0
2015-Apr-24 01:21N 55°08' E 014°09'1012.9
2015-Apr-24 00:33N 55°16' E 014°22'1313.3
2015-Apr-23 23:33N 55°26' E 014°36'1313.3
2015-Apr-23 22:33N 55°33' E 014°56'1313.4
2015-Apr-23 21:33N 55°40' E 015°17'31412.9
2015-Apr-22 21:16N 59°22' E 022°10'1113.3
2015-Apr-22 20:24N 59°29' E 022°27'2513.4
2015-Apr-22 18:33N 59°37' E 023°13'1413.7
2015-Apr-22 17:32N 59°41' E 023°39'1313.4
2015-Apr-22 16:33N 59°45' E 024°05'1313.3
2015-Apr-22 15:33N 59°48' E 024°30'4412.9
2015-Apr-22 12:10N 59°56' E 025°56'812.6
2015-Apr-22 11:33N 59°58' E 026°11'1212.6
2015-Apr-22 10:33N 60°02' E 026°35'1412.6
2015-Apr-22 09:28N 59°59' E 027°02'1213.1
2015-Apr-22 08:33N 60°05' E 027°23'  
Track history (hours):
 
Tides and Currents Weather Stations Pressure Air Temp Water Temp Dewpoint Dewpoint Depression Visibility Wind Speed Wind Dir Waves Ship Positions

Heloise

Last reported at 2015-Apr-27 12:08 UTC. Time now 2015-Apr-28 10:23 UTC.
Position N 49°56' W 003°19'.

Length 186 m; draft 7.7 m.

Type: Cargo ship. MMSI: 352302000.

Date/timePositionNaut miles runAvg speedWind from/ knotsBaromVisibWave heightAir tempDewpointWater temp
2015-Apr-27 12:08N 49°56' W 003°19'14313.6
2015-Apr-27 01:33N 50°33' E 000°17'1313.1
2015-Apr-27 00:33N 50°37' E 000°37'1413.7
2015-Apr-26 23:33N 50°45' E 000°55'1514.1
2015-Apr-26 22:32N 50°53' E 001°14'1313.8
2015-Apr-26 21:33N 51°02' E 001°29'1313.0
2015-Apr-26 20:33N 51°11' E 001°44'1212.5
2015-Apr-26 19:33N 51°23' E 001°53'1312.5
2015-Apr-26 18:32N 51°32' E 002°06'1412.8
2015-Apr-26 17:26N 51°42' E 002°22'46312.5
2015-Apr-25 04:33N 57°49' E 010°30'1211.6
2015-Apr-25 03:33N 57°47' E 010°52'1312.9
2015-Apr-25 02:33N 57°38' E 011°09'1313.1
2015-Apr-25 01:34N 57°29' E 011°26'1413.6
2015-Apr-25 00:33N 57°16' E 011°33'1313.2
2015-Apr-24 23:33N 57°03' E 011°42'3712.3
2015-Apr-24 20:32N 56°27' E 011°33'11012.0
2015-Apr-24 11:20N 54°39' E 010°54'1013.1
2015-Apr-24 10:34N 54°36' E 011°11'1312.9
2015-Apr-24 09:34N 54°30' E 011°31'1312.8
2015-Apr-24 08:33N 54°26' E 011°52'1211.8
2015-Apr-24 07:33N 54°30' E 012°11'1312.4
2015-Apr-24 06:29N 54°41' E 012°24'1313.4
2015-Apr-24 05:32N 54°47' E 012°43'1413.1
2015-Apr-24 04:27N 54°52' E 013°06'1213.3
2015-Apr-24 03:33N 54°56' E 013°26'1713.1
2015-Apr-24 02:17N 55°03' E 013°52'1112.0
2015-Apr-24 01:21N 55°08' E 014°09'1012.9
2015-Apr-24 00:33N 55°16' E 014°22'1313.3
2015-Apr-23 23:33N 55°26' E 014°36'1313.3
2015-Apr-23 22:33N 55°33' E 014°56'1313.4
2015-Apr-23 21:33N 55°40' E 015°17'31412.9
2015-Apr-22 21:16N 59°22' E 022°10'1113.3
2015-Apr-22 20:24N 59°29' E 022°27'2513.4
2015-Apr-22 18:33N 59°37' E 023°13'1413.7
2015-Apr-22 17:32N 59°41' E 023°39'1313.4
2015-Apr-22 16:33N 59°45' E 024°05'1313.3
2015-Apr-22 15:33N 59°48' E 024°30'4412.9
2015-Apr-22 12:10N 59°56' E 025°56'812.6
2015-Apr-22 11:33N 59°58' E 026°11'1212.6
2015-Apr-22 10:33N 60°02' E 026°35'1412.6
2015-Apr-22 09:28N 59°59' E 027°02'1213.1
2015-Apr-22 08:33N 60°05' E 027°23'  

Dump ship's entire track history